createdAt,value
2023-05-13T00:00:52.743Z,0.00
2023-05-13T00:01:52.716Z,0.00
2023-05-13T00:02:52.751Z,0.00
2023-05-13T00:03:52.781Z,0.00
2023-05-13T00:04:52.692Z,0.00
2023-05-13T00:05:52.713Z,0.00
2023-05-13T00:06:52.709Z,0.00
2023-05-13T00:07:52.720Z,0.00
2023-05-13T00:08:52.647Z,0.00
2023-05-13T00:09:52.650Z,0.00
2023-05-13T00:10:52.682Z,0.00
2023-05-13T00:11:52.600Z,0.00
2023-05-13T00:12:52.751Z,0.00
2023-05-13T00:13:52.574Z,0.00
2023-05-13T00:14:52.595Z,0.00
2023-05-13T00:15:52.623Z,0.00
2023-05-13T00:16:52.586Z,0.00
2023-05-13T00:17:52.646Z,0.00
2023-05-13T00:18:52.624Z,0.00
2023-05-13T00:19:52.504Z,0.00
2023-05-13T00:20:52.504Z,0.00
2023-05-13T00:21:52.473Z,0.00
2023-05-13T00:22:52.524Z,0.00
2023-05-13T00:23:52.466Z,0.00
2023-05-13T00:24:52.469Z,0.00
2023-05-13T00:25:52.448Z,0.00
2023-05-13T00:26:52.467Z,0.00
2023-05-13T00:27:52.435Z,0.00
2023-05-13T00:28:52.398Z,0.00
2023-05-13T00:29:52.392Z,0.00
2023-05-13T00:30:52.432Z,0.00
2023-05-13T00:31:52.414Z,0.00
2023-05-13T00:32:52.417Z,0.00
2023-05-13T00:33:52.373Z,0.00
2023-05-13T00:34:52.374Z,0.00
2023-05-13T00:35:52.338Z,0.00
2023-05-13T00:36:52.339Z,0.00
2023-05-13T00:37:52.311Z,0.00
2023-05-13T00:38:52.299Z,0.00
2023-05-13T00:39:52.317Z,0.00
2023-05-13T00:40:52.336Z,0.00
2023-05-13T00:41:52.272Z,0.00
2023-05-13T00:42:52.307Z,0.00
2023-05-13T00:43:52.322Z,0.00
2023-05-13T00:44:52.282Z,0.00
2023-05-13T00:45:52.275Z,0.00
2023-05-13T00:46:52.218Z,0.00
2023-05-13T00:47:52.261Z,0.00
2023-05-13T00:48:52.196Z,0.00
2023-05-13T00:49:52.177Z,0.00
2023-05-13T00:50:52.181Z,0.00
2023-05-13T00:51:52.155Z,0.00
2023-05-13T00:52:52.177Z,0.00
2023-05-13T00:53:52.136Z,0.00
2023-05-13T00:54:52.125Z,0.00
2023-05-13T00:55:52.135Z,0.00
2023-05-13T00:56:52.125Z,0.00
2023-05-13T00:57:52.125Z,0.00
2023-05-13T00:58:52.098Z,0.00
2023-05-13T00:59:52.084Z,0.00
2023-05-13T01:00:52.129Z,0.00
2023-05-13T01:01:52.071Z,0.00
2023-05-13T01:02:52.168Z,0.00
2023-05-13T01:03:52.035Z,0.00
2023-05-13T01:04:52.062Z,0.00
2023-05-13T01:05:52.014Z,0.00
2023-05-13T01:06:52.004Z,0.00
2023-05-13T01:07:52.035Z,0.00
2023-05-13T01:08:52.064Z,0.00
2023-05-13T01:09:51.968Z,0.00
2023-05-13T01:10:51.978Z,0.00
2023-05-13T01:11:51.919Z,0.00
2023-05-13T01:12:51.955Z,0.00
2023-05-13T01:13:52.204Z,0.00
2023-05-13T01:14:52.027Z,0.00
2023-05-13T01:15:51.909Z,0.00
2023-05-13T01:16:51.981Z,0.00
2023-05-13T01:17:51.929Z,0.00
2023-05-13T01:18:51.932Z,0.00
2023-05-13T01:19:51.851Z,0.00
2023-05-13T01:20:51.868Z,0.00
2023-05-13T01:21:51.813Z,0.00
2023-05-13T01:22:51.814Z,0.00
2023-05-13T01:23:51.938Z,0.00
2023-05-13T01:24:51.835Z,0.00
2023-05-13T01:25:51.777Z,0.00
2023-05-13T01:26:51.784Z,0.00
2023-05-13T01:27:51.768Z,0.00
2023-05-13T01:28:51.771Z,0.00
2023-05-13T01:29:51.732Z,0.00
2023-05-13T01:30:51.820Z,0.00
2023-05-13T01:31:51.746Z,0.00
2023-05-13T01:32:51.822Z,0.00
2023-05-13T01:33:51.695Z,0.00
2023-05-13T01:34:51.692Z,0.00
2023-05-13T01:35:51.709Z,0.00
2023-05-13T01:36:51.671Z,0.00
2023-05-13T01:37:51.674Z,0.00
2023-05-13T01:38:51.689Z,0.00
2023-05-13T01:39:51.673Z,0.00
2023-05-13T01:40:51.630Z,0.00
2023-05-13T01:41:51.594Z,0.00
2023-05-13T01:42:51.625Z,0.00
2023-05-13T01:43:51.571Z,0.00
2023-05-13T01:44:51.609Z,0.00
2023-05-13T01:45:51.650Z,0.00
2023-05-13T01:46:51.585Z,0.00
2023-05-13T01:47:51.562Z,0.00
2023-05-13T01:48:55.522Z,0.00
2023-05-13T01:49:51.661Z,0.00
2023-05-13T01:50:51.517Z,0.00
2023-05-13T01:51:53.344Z,0.00
2023-05-13T01:52:51.497Z,0.00
2023-05-13T01:53:51.503Z,0.00
2023-05-13T01:54:51.493Z,0.00
2023-05-13T01:55:51.456Z,0.00
2023-05-13T01:56:51.483Z,0.00
2023-05-13T01:57:51.435Z,0.00
2023-05-13T01:58:51.425Z,0.00
2023-05-13T01:59:51.414Z,0.00
2023-05-13T02:00:51.424Z,0.00
2023-05-13T02:01:51.487Z,0.00
2023-05-13T02:02:51.417Z,0.00
2023-05-13T02:03:51.517Z,0.00
2023-05-13T02:04:51.394Z,0.00
2023-05-13T02:05:51.359Z,0.00
2023-05-13T02:06:51.346Z,0.00
2023-05-13T02:07:51.328Z,0.00
2023-05-13T02:08:51.325Z,0.00
2023-05-13T02:09:51.285Z,0.00
2023-05-13T02:10:51.285Z,0.00
2023-05-13T02:11:51.292Z,0.00
2023-05-13T02:12:51.286Z,0.00
2023-05-13T02:13:51.249Z,0.00
2023-05-13T02:14:51.256Z,0.00
2023-05-13T02:15:51.264Z,0.00
2023-05-13T02:16:51.402Z,0.00
2023-05-13T02:17:51.332Z,0.00
2023-05-13T02:18:51.282Z,0.00
2023-05-13T02:19:51.200Z,0.00
2023-05-13T02:20:51.202Z,0.00
2023-05-13T02:21:51.158Z,0.00
2023-05-13T02:22:51.172Z,0.00
2023-05-13T02:23:51.165Z,0.00
2023-05-13T02:24:51.145Z,0.00
2023-05-13T02:25:51.139Z,0.00
2023-05-13T02:26:51.145Z,0.00
2023-05-13T02:27:51.111Z,0.00
2023-05-13T02:28:51.163Z,0.00
2023-05-13T02:29:51.098Z,0.00
2023-05-13T02:30:51.104Z,0.00
2023-05-13T02:31:51.126Z,0.00
2023-05-13T02:32:51.133Z,0.00
2023-05-13T02:33:51.040Z,0.00
2023-05-13T02:34:51.060Z,0.00
2023-05-13T02:35:51.045Z,0.00
2023-05-13T02:36:51.051Z,0.00
2023-05-13T02:37:51.022Z,0.00
2023-05-13T02:38:50.991Z,0.00
2023-05-13T02:39:50.972Z,0.00
2023-05-13T02:40:50.985Z,0.00
2023-05-13T02:41:50.945Z,0.00
2023-05-13T02:42:50.938Z,0.00
2023-05-13T02:43:50.932Z,0.00
2023-05-13T02:44:50.916Z,0.00
2023-05-13T02:45:51.005Z,0.00
2023-05-13T02:46:50.923Z,0.00
2023-05-13T02:47:51.047Z,0.00
2023-05-13T02:48:50.906Z,0.00
2023-05-13T02:49:50.857Z,0.00
2023-05-13T02:50:50.861Z,0.00
2023-05-13T02:51:50.849Z,0.00
2023-05-13T02:52:50.836Z,0.00
2023-05-13T02:53:50.836Z,0.00
2023-05-13T02:54:50.855Z,0.00
2023-05-13T02:55:50.806Z,0.00
2023-05-13T02:56:50.833Z,0.00
2023-05-13T02:57:50.784Z,0.00
2023-05-13T02:58:50.805Z,0.00
2023-05-13T02:59:50.805Z,0.00
2023-05-13T03:00:50.823Z,0.00
2023-05-13T03:01:50.776Z,0.00
2023-05-13T03:02:50.796Z,0.00
2023-05-13T03:03:50.722Z,0.00
2023-05-13T03:04:50.765Z,0.00
2023-05-13T03:05:50.712Z,0.00
2023-05-13T03:06:50.719Z,0.00
2023-05-13T03:07:50.670Z,0.00
2023-05-13T03:08:50.682Z,0.00
2023-05-13T03:09:50.660Z,0.00
2023-05-13T03:10:50.673Z,0.00
2023-05-13T03:11:50.636Z,0.00
2023-05-13T03:12:50.632Z,0.00
2023-05-13T03:13:50.630Z,0.00
2023-05-13T03:14:50.642Z,0.00
2023-05-13T03:15:50.667Z,0.00
2023-05-13T03:16:50.576Z,0.00
2023-05-13T03:17:50.642Z,0.00
2023-05-13T03:18:50.849Z,0.00
2023-05-13T03:19:50.597Z,0.00
2023-05-13T03:20:50.592Z,0.00
2023-05-13T03:21:50.559Z,0.00
2023-05-13T03:22:50.508Z,0.00
2023-05-13T03:23:50.526Z,0.00
2023-05-13T03:24:50.523Z,0.00
2023-05-13T03:25:50.459Z,5.62
2023-05-13T03:26:50.499Z,5.62
2023-05-13T03:27:50.502Z,5.62
2023-05-13T03:28:50.473Z,5.62
2023-05-13T03:29:50.452Z,5.62
2023-05-13T03:30:50.476Z,5.62
2023-05-13T03:31:50.508Z,5.62
2023-05-13T03:32:50.473Z,5.62
2023-05-13T03:33:50.379Z,11.25
2023-05-13T03:34:50.433Z,11.25
2023-05-13T03:35:50.380Z,11.25
2023-05-13T03:36:50.378Z,11.25
2023-05-13T03:37:50.366Z,11.25
2023-05-13T03:38:50.334Z,11.25
2023-05-13T03:39:50.333Z,16.88
2023-05-13T03:40:50.332Z,16.88
2023-05-13T03:41:50.332Z,16.88
2023-05-13T03:42:50.317Z,16.88
2023-05-13T03:43:50.275Z,22.50
2023-05-13T03:44:50.293Z,22.50
2023-05-13T03:45:50.256Z,22.50
2023-05-13T03:46:50.330Z,22.50
2023-05-13T03:47:50.283Z,28.12
2023-05-13T03:48:50.241Z,28.12
2023-05-13T03:49:50.243Z,28.12
2023-05-13T03:50:50.238Z,28.12
2023-05-13T03:51:50.198Z,33.75
2023-05-13T03:52:50.192Z,33.75
2023-05-13T03:53:50.217Z,33.75
2023-05-13T03:54:50.226Z,39.38
2023-05-13T03:55:50.153Z,39.38
2023-05-13T03:56:50.161Z,39.38
2023-05-13T03:57:50.159Z,39.38
2023-05-13T03:58:50.149Z,45.00
2023-05-13T03:59:50.173Z,45.00
2023-05-13T04:00:50.152Z,45.00
2023-05-13T04:01:50.132Z,50.62
2023-05-13T04:02:50.292Z,50.62
2023-05-13T04:03:50.051Z,50.62
2023-05-13T04:04:50.127Z,56.25
2023-05-13T04:05:50.081Z,56.25
2023-05-13T04:06:50.064Z,56.25
2023-05-13T04:07:50.018Z,61.88
2023-05-13T04:08:50.035Z,61.88
2023-05-13T04:09:50.023Z,61.88
2023-05-13T04:10:50.024Z,67.50
2023-05-13T04:11:50.038Z,67.50
2023-05-13T04:12:50.018Z,73.12
2023-05-13T04:13:50.021Z,73.12
2023-05-13T04:14:50.021Z,73.12
2023-05-13T04:15:49.956Z,78.75
2023-05-13T04:16:49.989Z,78.75
2023-05-13T04:17:50.002Z,84.38
2023-05-13T04:18:49.970Z,84.38
2023-05-13T04:19:49.940Z,90.00
2023-05-13T04:20:50.121Z,90.00
2023-05-13T04:21:49.950Z,95.62
2023-05-13T04:22:49.838Z,101.25
2023-05-13T04:23:49.862Z,101.25
2023-05-13T04:24:49.873Z,101.25
2023-05-13T04:25:49.877Z,106.88
2023-05-13T04:26:49.855Z,112.50
2023-05-13T04:27:49.805Z,106.88
2023-05-13T04:28:49.802Z,112.50
2023-05-13T04:29:49.817Z,112.50
2023-05-13T04:30:49.779Z,118.12
2023-05-13T04:31:49.828Z,123.75
2023-05-13T04:32:49.778Z,123.75
2023-05-13T04:33:49.799Z,129.38
2023-05-13T04:34:49.779Z,129.38
2023-05-13T04:35:50.509Z,135.00
2023-05-13T04:36:49.691Z,135.00
2023-05-13T04:37:49.804Z,140.62
2023-05-13T04:38:49.722Z,140.62
2023-05-13T04:39:49.721Z,146.25
2023-05-13T04:40:49.701Z,151.88
2023-05-13T04:41:49.662Z,157.50
2023-05-13T04:42:49.637Z,157.50
2023-05-13T04:43:49.709Z,163.12
2023-05-13T04:44:49.664Z,168.75
2023-05-13T04:45:49.637Z,168.75
2023-05-13T04:46:49.653Z,174.38
2023-05-13T04:47:49.653Z,180.00
2023-05-13T04:48:49.607Z,185.62
2023-05-13T04:49:49.624Z,191.25
2023-05-13T04:50:49.588Z,191.25
2023-05-13T04:51:49.626Z,191.25
2023-05-13T04:52:49.553Z,191.25
2023-05-13T04:53:49.528Z,196.88
2023-05-13T04:54:49.541Z,202.50
2023-05-13T04:55:49.526Z,202.50
2023-05-13T04:56:49.521Z,208.12
2023-05-13T04:57:49.476Z,213.75
2023-05-13T04:58:49.454Z,213.75
2023-05-13T04:59:49.507Z,219.38
2023-05-13T05:00:49.505Z,219.38
2023-05-13T05:01:50.488Z,219.38
2023-05-13T05:02:49.455Z,225.00
2023-05-13T05:03:49.478Z,225.00
2023-05-13T05:04:51.202Z,225.00
2023-05-13T05:05:49.420Z,225.00
2023-05-13T05:06:49.460Z,213.75
2023-05-13T05:07:49.411Z,225.00
2023-05-13T05:08:49.362Z,230.62
2023-05-13T05:09:49.371Z,230.62
2023-05-13T05:10:49.377Z,230.62
2023-05-13T05:11:49.360Z,230.62
2023-05-13T05:12:49.410Z,230.62
2023-05-13T05:13:49.325Z,230.62
2023-05-13T05:14:49.693Z,236.25
2023-05-13T05:15:49.386Z,236.25
2023-05-13T05:16:49.404Z,236.25
2023-05-13T05:17:49.474Z,236.25
2023-05-13T05:18:49.380Z,241.88
2023-05-13T05:19:49.308Z,241.88
2023-05-13T05:20:49.215Z,241.88
2023-05-13T05:21:49.220Z,247.50
2023-05-13T05:22:49.379Z,247.50
2023-05-13T05:23:49.230Z,247.50
2023-05-13T05:24:49.933Z,253.12
2023-05-13T05:25:53.237Z,253.12
2023-05-13T05:26:50.174Z,258.75
2023-05-13T05:27:49.236Z,258.75
2023-05-13T05:28:49.160Z,264.38
2023-05-13T05:29:49.184Z,264.38
2023-05-13T05:30:49.414Z,264.38
2023-05-13T05:31:49.166Z,270.00
2023-05-13T05:32:49.143Z,270.00
2023-05-13T05:33:49.174Z,275.62
2023-05-13T05:34:49.104Z,275.62
2023-05-13T05:35:49.091Z,275.62
2023-05-13T05:36:49.102Z,281.25
2023-05-13T05:37:49.096Z,281.25
2023-05-13T05:38:49.049Z,281.25
2023-05-13T05:39:49.033Z,281.25
2023-05-13T05:40:49.082Z,286.88
2023-05-13T05:41:49.094Z,286.88
2023-05-13T05:42:49.078Z,286.88
2023-05-13T05:43:49.057Z,292.50
2023-05-13T05:44:49.036Z,292.50
2023-05-13T05:45:49.177Z,292.50
2023-05-13T05:46:49.014Z,292.50
2023-05-13T05:47:49.321Z,292.50
2023-05-13T05:48:49.126Z,292.50
2023-05-13T05:49:49.075Z,298.12
2023-05-13T05:50:49.321Z,298.12
2023-05-13T05:51:49.096Z,298.12
2023-05-13T05:52:49.121Z,303.75
2023-05-13T05:53:49.027Z,303.75
2023-05-13T05:54:49.027Z,303.75
2023-05-13T05:55:51.092Z,303.75
2023-05-13T05:56:48.878Z,309.38
2023-05-13T05:57:48.899Z,309.38
2023-05-13T05:58:48.900Z,309.38
2023-05-13T05:59:48.838Z,315.00
2023-05-13T06:00:48.837Z,315.00
2023-05-13T06:01:48.828Z,315.00
2023-05-13T06:02:49.090Z,320.62
2023-05-13T06:03:48.914Z,320.62
2023-05-13T06:04:48.820Z,320.62
2023-05-13T06:05:48.805Z,320.62
2023-05-13T06:06:48.756Z,326.25
2023-05-13T06:07:48.736Z,326.25
2023-05-13T06:08:48.870Z,326.25
2023-05-13T06:09:48.719Z,331.88
2023-05-13T06:10:48.692Z,331.88
2023-05-13T06:11:48.700Z,331.88
2023-05-13T06:12:48.645Z,331.88
2023-05-13T06:13:48.664Z,331.88
2023-05-13T06:14:48.639Z,337.50
2023-05-13T06:15:48.723Z,337.50
2023-05-13T06:16:48.647Z,337.50
2023-05-13T06:17:48.668Z,343.12
2023-05-13T06:18:48.638Z,343.12
2023-05-13T06:19:48.606Z,343.12
2023-05-13T06:20:48.606Z,343.12
2023-05-13T06:21:48.557Z,348.75
2023-05-13T06:22:48.609Z,348.75
2023-05-13T06:23:48.580Z,348.75
2023-05-13T06:24:48.628Z,348.75
2023-05-13T06:25:48.562Z,348.75
2023-05-13T06:26:48.512Z,348.75
2023-05-13T06:27:48.496Z,348.75
2023-05-13T06:28:48.470Z,354.38
2023-05-13T06:29:48.533Z,354.38
2023-05-13T06:30:48.488Z,354.38
2023-05-13T06:31:48.517Z,354.38
2023-05-13T06:33:00.134Z,354.38
2023-05-13T06:33:49.417Z,360.00
2023-05-13T06:34:48.398Z,360.00
2023-05-13T06:35:48.477Z,360.00
2023-05-13T06:36:48.404Z,360.00
2023-05-13T06:37:48.395Z,365.62
2023-05-13T06:38:48.364Z,365.62
2023-05-13T06:39:48.397Z,365.62
2023-05-13T06:40:48.431Z,365.62
2023-05-13T06:41:48.333Z,371.25
2023-05-13T06:42:48.381Z,371.25
2023-05-13T06:43:48.337Z,371.25
2023-05-13T06:44:48.458Z,376.88
2023-05-13T06:45:48.328Z,376.88
2023-05-13T06:46:48.369Z,376.88
2023-05-13T06:47:48.401Z,382.50
2023-05-13T06:48:48.269Z,382.50
2023-05-13T06:49:48.331Z,382.50
2023-05-13T06:50:48.275Z,382.50
2023-05-13T06:51:48.361Z,382.50
2023-05-13T06:52:48.302Z,388.12
2023-05-13T06:53:48.283Z,388.12
2023-05-13T06:54:48.241Z,388.12
2023-05-13T06:55:48.243Z,388.12
2023-05-13T06:56:48.191Z,393.75
2023-05-13T06:57:48.273Z,393.75
2023-05-13T06:58:48.143Z,393.75
2023-05-13T06:59:48.246Z,393.75
2023-05-13T07:00:48.936Z,393.75
2023-05-13T07:01:48.657Z,393.75
2023-05-13T07:02:48.834Z,399.38
2023-05-13T07:03:49.143Z,399.38
2023-05-13T07:04:49.084Z,399.38
2023-05-13T07:05:49.482Z,399.38
2023-05-13T07:06:48.494Z,399.38
2023-05-13T07:07:48.425Z,399.38
2023-05-13T07:08:48.514Z,399.38
2023-05-13T07:09:48.572Z,399.38
2023-05-13T07:10:48.565Z,399.38
2023-05-13T07:11:48.640Z,405.00
2023-05-13T07:12:48.703Z,405.00
2023-05-13T07:13:48.461Z,405.00
2023-05-13T07:14:48.683Z,410.62
2023-05-13T07:15:49.433Z,410.62
2023-05-13T07:16:48.377Z,410.62
2023-05-13T07:17:48.978Z,410.62
2023-05-13T07:18:48.449Z,410.62
2023-05-13T07:19:48.329Z,410.62
2023-05-13T07:20:48.500Z,410.62
2023-05-13T07:21:49.017Z,416.25
2023-05-13T07:22:49.025Z,416.25
2023-05-13T07:23:48.910Z,416.25
2023-05-13T07:24:49.050Z,416.25
2023-05-13T07:25:48.185Z,416.25
2023-05-13T07:26:48.543Z,416.25
2023-05-13T07:27:48.156Z,421.88
2023-05-13T07:28:48.024Z,421.88
2023-05-13T07:29:48.304Z,421.88
2023-05-13T07:30:48.171Z,421.88
2023-05-13T07:31:48.489Z,421.88
2023-05-13T07:32:47.982Z,421.88
2023-05-13T07:33:47.811Z,421.88
2023-05-13T07:34:47.749Z,427.50
2023-05-13T07:35:47.947Z,427.50
2023-05-13T07:36:47.783Z,427.50
2023-05-13T07:37:47.724Z,427.50
2023-05-13T07:38:47.699Z,427.50
2023-05-13T07:39:47.709Z,427.50
2023-05-13T07:40:47.663Z,433.12
2023-05-13T07:41:47.660Z,433.12
2023-05-13T07:42:47.649Z,433.12
2023-05-13T07:43:47.646Z,433.12
2023-05-13T07:44:47.673Z,433.12
2023-05-13T07:45:47.684Z,433.12
2023-05-13T07:46:47.630Z,438.75
2023-05-13T07:47:47.660Z,438.75
2023-05-13T07:48:47.576Z,438.75
2023-05-13T07:49:47.603Z,438.75
2023-05-13T07:50:47.584Z,444.38
2023-05-13T07:51:47.581Z,444.38
2023-05-13T07:52:54.560Z,444.38
2023-05-13T07:53:47.536Z,450.00
2023-05-13T07:54:47.517Z,450.00
2023-05-13T07:55:47.530Z,450.00
2023-05-13T07:56:47.512Z,450.00
2023-05-13T07:57:47.545Z,450.00
2023-05-13T07:58:47.464Z,455.62
2023-05-13T07:59:47.481Z,455.62
2023-05-13T08:00:47.497Z,455.62
2023-05-13T08:01:47.463Z,455.62
2023-05-13T08:02:47.542Z,461.25
2023-05-13T08:03:47.571Z,461.25
2023-05-13T08:04:47.441Z,461.25
2023-05-13T08:05:47.411Z,461.25
2023-05-13T08:06:47.382Z,461.25
2023-05-13T08:07:47.403Z,461.25
2023-05-13T08:08:47.361Z,461.25
2023-05-13T08:09:47.364Z,461.25
2023-05-13T08:10:47.353Z,461.25
2023-05-13T08:11:47.348Z,466.88
2023-05-13T08:12:47.320Z,466.88
2023-05-13T08:13:47.328Z,472.50
2023-05-13T08:14:48.810Z,472.50
2023-05-13T08:15:47.298Z,478.12
2023-05-13T08:16:47.405Z,478.12
2023-05-13T08:17:47.344Z,478.12
2023-05-13T08:18:47.286Z,478.12
2023-05-13T08:19:47.265Z,483.75
2023-05-13T08:20:47.228Z,483.75
2023-05-13T08:21:47.243Z,483.75
2023-05-13T08:22:47.185Z,483.75
2023-05-13T08:23:47.213Z,489.38
2023-05-13T08:24:47.200Z,489.38
2023-05-13T08:25:47.186Z,489.38
2023-05-13T08:26:47.176Z,495.00
2023-05-13T08:27:47.177Z,495.00
2023-05-13T08:29:47.158Z,500.62
2023-05-13T08:30:47.161Z,500.62
2023-05-13T08:31:47.160Z,500.62
2023-05-13T08:32:47.188Z,500.62
2023-05-13T08:33:47.099Z,506.25
2023-05-13T08:34:47.099Z,506.25
2023-05-13T08:35:47.068Z,506.25
2023-05-13T08:36:47.066Z,506.25
2023-05-13T08:37:47.070Z,506.25
2023-05-13T08:38:47.064Z,511.88
2023-05-13T08:39:47.044Z,511.88
2023-05-13T08:40:47.026Z,511.88
2023-05-13T08:41:46.998Z,511.88
2023-05-13T08:42:47.015Z,511.88
2023-05-13T08:43:46.982Z,517.50
2023-05-13T08:44:46.992Z,517.50
2023-05-13T08:45:46.970Z,517.50
2023-05-13T08:46:46.967Z,517.50
2023-05-13T08:47:46.975Z,523.12
2023-05-13T08:48:46.971Z,523.12
2023-05-13T08:49:46.904Z,523.12
2023-05-13T08:50:46.966Z,523.12
2023-05-13T08:51:46.908Z,523.12
2023-05-13T08:52:46.909Z,523.12
2023-05-13T08:53:46.903Z,528.75
2023-05-13T08:54:46.884Z,523.12
2023-05-13T08:55:46.880Z,528.75
2023-05-13T08:56:46.845Z,528.75
2023-05-13T08:57:46.860Z,528.75
2023-05-13T08:58:46.864Z,528.75
2023-05-13T08:59:46.805Z,534.38
2023-05-13T09:00:46.950Z,534.38
2023-05-13T09:01:46.828Z,534.38
2023-05-13T09:02:46.859Z,534.38
2023-05-13T09:03:46.794Z,540.00
2023-05-13T09:04:46.819Z,540.00
2023-05-13T09:05:46.748Z,540.00
2023-05-13T09:06:46.745Z,540.00
2023-05-13T09:07:46.964Z,540.00
2023-05-13T09:08:46.732Z,545.62
2023-05-13T09:09:46.705Z,545.62
2023-05-13T09:10:46.692Z,545.62
2023-05-13T09:11:46.678Z,545.62
2023-05-13T09:12:46.699Z,545.62
2023-05-13T09:13:46.677Z,545.62
2023-05-13T09:14:46.633Z,551.25
2023-05-13T09:15:46.718Z,551.25
2023-05-13T09:16:47.016Z,551.25
2023-05-13T09:17:46.638Z,551.25
2023-05-13T09:18:46.652Z,556.88
2023-05-13T09:19:46.677Z,556.88
2023-05-13T09:20:46.595Z,556.88
2023-05-13T09:21:46.598Z,556.88
2023-05-13T09:22:46.559Z,562.50
2023-05-13T09:23:46.560Z,562.50
2023-05-13T09:24:46.557Z,562.50
2023-05-13T09:25:46.528Z,568.12
2023-05-13T09:26:46.545Z,568.12
2023-05-13T09:27:46.507Z,568.12
2023-05-13T09:28:46.518Z,568.12
2023-05-13T09:29:46.599Z,573.75
2023-05-13T09:30:46.935Z,573.75
2023-05-13T09:31:46.563Z,573.75
2023-05-13T09:32:46.502Z,579.38
2023-05-13T09:33:46.431Z,579.38
2023-05-13T09:34:46.437Z,579.38
2023-05-13T09:35:46.400Z,585.00
2023-05-13T09:36:46.414Z,585.00
2023-05-13T09:37:46.393Z,585.00
2023-05-13T09:38:46.377Z,590.62
2023-05-13T09:39:46.361Z,590.62
2023-05-13T09:40:46.350Z,590.62
2023-05-13T09:41:46.362Z,596.25
2023-05-13T09:42:46.366Z,596.25
2023-05-13T09:43:46.305Z,596.25
2023-05-13T09:44:46.325Z,596.25
2023-05-13T09:45:46.303Z,601.88
2023-05-13T09:46:46.325Z,601.88
2023-05-13T09:47:46.317Z,601.88
2023-05-13T09:48:46.273Z,607.50
2023-05-13T09:49:46.232Z,607.50
2023-05-13T09:50:46.247Z,607.50
2023-05-13T09:51:46.230Z,613.12
2023-05-13T09:52:46.237Z,613.12
2023-05-13T09:53:46.218Z,613.12
2023-05-13T09:54:46.211Z,618.75
2023-05-13T09:55:46.192Z,618.75
2023-05-13T09:56:46.184Z,624.38
2023-05-13T09:57:46.180Z,630.00
2023-05-13T09:58:46.207Z,635.62
2023-05-13T09:59:46.169Z,646.88
2023-05-13T10:00:46.478Z,714.38
2023-05-13T10:01:46.223Z,860.62
2023-05-13T10:02:46.181Z,1023.75
2023-05-13T10:03:46.153Z,1198.12
2023-05-13T10:04:46.123Z,1501.88
2023-05-13T10:05:46.098Z,1541.25
2023-05-13T10:06:46.090Z,1361.25
2023-05-13T10:07:46.077Z,1254.38
2023-05-13T10:08:46.064Z,1192.50
2023-05-13T10:09:46.040Z,1170.00
2023-05-13T10:10:46.606Z,1102.50
2023-05-13T10:11:46.022Z,1074.38
2023-05-13T10:12:46.028Z,1096.88
2023-05-13T10:13:45.995Z,1074.38
2023-05-13T10:14:45.993Z,1006.88
2023-05-13T10:15:45.978Z,967.50
2023-05-13T10:16:46.016Z,939.38
2023-05-13T10:17:45.966Z,916.88
2023-05-13T10:18:46.017Z,894.38
2023-05-13T10:19:45.939Z,866.25
2023-05-13T10:20:45.929Z,855.00
2023-05-13T10:21:45.916Z,855.00
2023-05-13T10:22:45.909Z,849.38
2023-05-13T10:23:45.881Z,905.62
2023-05-13T10:24:45.888Z,888.75
2023-05-13T10:25:45.872Z,838.12
2023-05-13T10:26:45.868Z,860.62
2023-05-13T10:27:45.850Z,866.25
2023-05-13T10:28:45.837Z,871.88
2023-05-13T10:29:45.813Z,871.88
2023-05-13T10:30:45.834Z,877.50
2023-05-13T10:31:46.023Z,860.62
2023-05-13T10:32:45.838Z,871.88
2023-05-13T10:33:45.771Z,877.50
2023-05-13T10:34:45.772Z,877.50
2023-05-13T10:35:45.748Z,888.75
2023-05-13T10:36:45.751Z,922.50
2023-05-13T10:37:45.745Z,928.12
2023-05-13T10:38:45.742Z,894.38
2023-05-13T10:39:45.706Z,894.38
2023-05-13T10:40:45.731Z,916.88
2023-05-13T10:41:45.705Z,933.75
2023-05-13T10:42:45.710Z,945.00
2023-05-13T10:43:45.673Z,933.75
2023-05-13T10:44:45.665Z,956.25
2023-05-13T10:45:45.650Z,990.00
2023-05-13T10:46:45.700Z,1063.12
2023-05-13T10:47:45.675Z,1125.00
2023-05-13T10:48:45.703Z,1181.25
2023-05-13T10:49:45.633Z,1271.25
2023-05-13T10:50:45.599Z,1215.00
2023-05-13T10:51:45.595Z,1096.88
2023-05-13T10:52:45.591Z,1035.00
2023-05-13T10:53:45.563Z,990.00
2023-05-13T10:54:45.557Z,961.88
2023-05-13T10:55:45.579Z,1006.88
2023-05-13T10:56:45.559Z,1186.88
2023-05-13T10:57:45.514Z,1310.62
2023-05-13T10:58:45.517Z,1378.12
2023-05-13T10:59:45.483Z,1406.25
2023-05-13T11:00:45.497Z,1462.50
2023-05-13T11:01:45.502Z,1496.25
2023-05-13T11:02:45.629Z,1530.00
2023-05-13T11:03:45.581Z,1569.38
2023-05-13T11:04:45.459Z,1620.00
2023-05-13T11:05:45.431Z,1642.50
2023-05-13T11:06:45.419Z,1648.12
2023-05-13T11:07:45.428Z,1676.25
2023-05-13T11:08:45.422Z,1687.50
2023-05-13T11:09:45.399Z,1710.00
2023-05-13T11:10:45.409Z,1749.38
2023-05-13T11:11:45.375Z,1715.62
2023-05-13T11:12:45.376Z,1721.25
2023-05-13T11:13:45.370Z,1783.12
2023-05-13T11:14:45.370Z,1816.88
2023-05-13T11:15:45.434Z,1828.12
2023-05-13T11:16:45.397Z,1760.62
2023-05-13T11:17:45.322Z,1721.25
2023-05-13T11:18:45.365Z,1743.75
2023-05-13T11:19:45.306Z,1794.38
2023-05-13T11:20:52.251Z,1884.38
2023-05-13T11:21:46.276Z,1895.62
2023-05-13T11:22:45.284Z,1878.75
2023-05-13T11:23:45.264Z,1918.12
2023-05-13T11:24:45.264Z,1923.75
2023-05-13T11:25:45.249Z,1923.75
2023-05-13T11:26:45.233Z,1980.00
2023-05-13T11:27:45.222Z,1985.62
2023-05-13T11:28:45.210Z,1980.00
2023-05-13T11:29:45.180Z,1968.75
2023-05-13T11:30:45.182Z,2013.75
2023-05-13T11:31:45.289Z,2064.38
2023-05-13T11:32:45.202Z,2092.50
2023-05-13T11:33:45.559Z,2081.25
2023-05-13T11:34:45.156Z,2081.25
2023-05-13T11:35:45.144Z,2109.38
2023-05-13T11:36:45.145Z,2109.38
2023-05-13T11:37:45.103Z,2103.75
2023-05-13T11:38:45.116Z,2126.25
2023-05-13T11:39:45.093Z,2143.12
2023-05-13T11:40:45.108Z,2171.25
2023-05-13T11:41:45.052Z,2205.00
2023-05-13T11:42:45.080Z,2216.25
2023-05-13T11:43:45.041Z,2283.75
2023-05-13T11:44:45.066Z,2295.00
2023-05-13T11:45:45.053Z,2272.50
2023-05-13T11:46:45.048Z,2295.00
2023-05-13T11:47:45.068Z,2272.50
2023-05-13T11:48:44.992Z,2233.12
2023-05-13T11:49:45.041Z,2306.25
2023-05-13T11:50:45.008Z,2221.88
2023-05-13T11:51:44.959Z,1485.00
2023-05-13T11:52:44.972Z,2300.62
2023-05-13T11:53:44.964Z,2266.88
2023-05-13T11:54:44.969Z,2317.50
2023-05-13T11:55:44.913Z,2306.25
2023-05-13T11:56:44.943Z,1873.12
2023-05-13T11:57:44.907Z,2340.00
2023-05-13T11:58:44.905Z,2295.00
2023-05-13T11:59:48.148Z,2300.62
2023-05-13T12:00:46.699Z,2413.12
2023-05-13T12:01:44.918Z,2368.12
2023-05-13T12:02:45.036Z,2401.88
2023-05-13T12:03:45.032Z,2435.62
2023-05-13T12:04:44.902Z,2508.75
2023-05-13T12:05:44.920Z,2441.25
2023-05-13T12:06:44.824Z,2469.38
2023-05-13T12:07:44.799Z,2475.00
2023-05-13T12:08:44.792Z,2536.88
2023-05-13T12:09:44.804Z,2531.25
2023-05-13T12:10:44.810Z,2458.12
2023-05-13T12:11:44.753Z,2520.00
2023-05-13T12:12:44.775Z,2621.25
2023-05-13T12:13:44.731Z,2610.00
2023-05-13T12:14:44.734Z,2666.25
2023-05-13T12:15:44.731Z,2643.75
2023-05-13T12:16:44.715Z,2559.38
2023-05-13T12:17:44.742Z,2581.88
2023-05-13T12:18:44.745Z,2615.62
2023-05-13T12:19:44.690Z,2638.12
2023-05-13T12:20:44.671Z,2626.88
2023-05-13T12:21:44.659Z,2660.62
2023-05-13T12:22:44.732Z,2683.12
2023-05-13T12:23:44.648Z,2671.88
2023-05-13T12:24:44.661Z,2660.62
2023-05-13T12:25:44.654Z,2655.00
2023-05-13T12:26:44.657Z,2671.88
2023-05-13T12:27:44.635Z,2778.75
2023-05-13T12:28:44.629Z,2660.62
2023-05-13T12:29:44.596Z,2683.12
2023-05-13T12:30:44.615Z,2784.38
2023-05-13T12:31:44.543Z,2688.75
2023-05-13T12:32:47.069Z,2655.00
2023-05-13T12:33:44.542Z,2750.62
2023-05-13T12:34:44.740Z,2790.00
2023-05-13T12:35:44.554Z,2801.25
2023-05-13T12:36:44.580Z,2896.88
2023-05-13T12:37:44.481Z,2835.00
2023-05-13T12:38:44.502Z,2739.38
2023-05-13T12:39:44.462Z,2728.12
2023-05-13T12:40:44.473Z,2835.00